createdAt,value
2023-02-11T00:01:28.315Z,5.82
2023-02-11T00:03:59.190Z,5.81
2023-02-11T00:06:29.396Z,5.78
2023-02-11T00:08:58.287Z,5.83
2023-02-11T00:11:30.308Z,5.77
2023-02-11T00:14:00.068Z,5.76
2023-02-11T00:16:29.413Z,5.80
2023-02-11T00:19:00.477Z,5.74
2023-02-11T00:21:29.106Z,5.71
2023-02-11T00:23:59.812Z,5.76
2023-02-11T00:26:31.740Z,5.70
2023-02-11T00:29:00.839Z,5.74
2023-02-11T00:31:30.146Z,5.73
2023-02-11T00:33:59.715Z,5.74
2023-02-11T00:36:30.397Z,5.62
2023-02-11T00:38:59.708Z,5.46
2023-02-11T00:41:29.648Z,5.40
2023-02-11T00:44:00.756Z,5.37
2023-02-11T00:46:29.159Z,5.30
2023-02-11T00:48:58.759Z,5.44
2023-02-11T00:51:27.625Z,5.34
2023-02-11T00:53:56.430Z,5.39
2023-02-11T00:56:24.819Z,5.35
2023-02-11T00:58:53.389Z,5.38
2023-02-11T01:01:21.669Z,5.41
2023-02-11T01:03:49.910Z,5.38
2023-02-11T01:06:19.504Z,5.41
2023-02-11T01:08:47.640Z,5.40
2023-02-11T01:11:19.217Z,5.18
2023-02-11T01:13:48.902Z,5.22
2023-02-11T01:16:19.064Z,5.28
2023-02-11T01:18:48.377Z,5.29
2023-02-11T01:21:20.430Z,5.11
2023-02-11T01:23:48.675Z,5.12
2023-02-11T01:26:16.986Z,5.24
2023-02-11T01:28:45.748Z,5.31
2023-02-11T01:31:14.359Z,5.28
2023-02-11T01:33:42.624Z,5.24
2023-02-11T01:36:13.140Z,5.25
2023-02-11T01:38:44.371Z,5.26
2023-02-11T01:41:15.541Z,5.18
2023-02-11T01:43:46.759Z,5.18
2023-02-11T01:46:34.646Z,5.19
2023-02-11T01:49:08.315Z,5.13
2023-02-11T01:51:40.977Z,5.16
2023-02-11T01:54:29.927Z,5.04
2023-02-11T01:57:17.996Z,5.05
2023-02-11T01:59:51.855Z,5.06
2023-02-11T02:02:30.618Z,5.07
2023-02-11T02:05:17.586Z,5.14
2023-02-11T02:07:55.243Z,5.07
2023-02-11T02:10:29.009Z,5.15
2023-02-11T02:12:57.646Z,5.26
2023-02-11T02:15:30.825Z,5.21
2023-02-11T02:18:10.922Z,5.28
2023-02-11T02:21:54.945Z,5.19
2023-02-11T02:25:00.877Z,5.21
2023-02-11T02:27:49.957Z,5.09
2023-02-11T02:30:59.344Z,5.25
2023-02-11T02:33:52.534Z,5.08
2023-02-11T02:36:29.360Z,5.19
2023-02-11T02:39:05.167Z,5.20
2023-02-11T02:41:36.897Z,5.24
2023-02-11T02:44:05.729Z,5.24
2023-02-11T02:46:36.396Z,5.31
2023-02-11T02:49:13.321Z,5.13
2023-02-11T02:52:17.065Z,5.23
2023-02-11T02:55:21.988Z,5.18
2023-02-11T02:58:12.327Z,5.20
2023-02-11T03:00:50.359Z,5.13
2023-02-11T03:03:29.597Z,5.20
2023-02-11T03:06:06.943Z,4.97
2023-02-11T03:08:42.192Z,5.04
2023-02-11T03:11:12.813Z,5.15
2023-02-11T03:13:42.184Z,5.09
2023-02-11T03:16:15.201Z,4.94
2023-02-11T03:18:50.409Z,4.99
2023-02-11T03:21:21.649Z,4.89
2023-02-11T03:23:56.308Z,4.96
2023-02-11T03:26:31.625Z,4.91
2023-02-11T03:29:10.458Z,4.96
2023-02-11T03:31:48.741Z,4.98
2023-02-11T03:34:25.117Z,5.04
2023-02-11T03:37:01.343Z,5.00
2023-02-11T03:39:35.970Z,4.90
2023-02-11T03:42:08.051Z,4.92
2023-02-11T03:44:41.867Z,5.05
2023-02-11T03:47:13.839Z,4.94
2023-02-11T03:49:45.836Z,5.03
2023-02-11T03:52:17.933Z,4.91
2023-02-11T03:54:49.953Z,4.95
2023-02-11T03:57:18.285Z,4.92
2023-02-11T03:59:55.166Z,5.00
2023-02-11T04:02:26.212Z,4.91
2023-02-11T04:04:54.355Z,4.88
2023-02-11T04:07:23.973Z,4.79
2023-02-11T04:09:52.588Z,4.84
2023-02-11T04:12:20.969Z,4.80
2023-02-11T04:14:49.211Z,4.88
2023-02-11T04:17:17.648Z,4.80
2023-02-11T04:19:45.916Z,4.96
2023-02-11T04:22:14.082Z,4.98
2023-02-11T04:24:44.065Z,4.94
2023-02-11T04:27:12.288Z,5.02
2023-02-11T04:29:40.462Z,5.03
2023-02-11T04:32:08.769Z,4.86
2023-02-11T04:34:37.080Z,4.95
2023-02-11T04:37:05.635Z,5.08
2023-02-11T04:39:33.769Z,4.83
2023-02-11T04:42:03.297Z,4.80
2023-02-11T04:44:31.673Z,4.87
2023-02-11T04:47:00.126Z,4.83
2023-02-11T04:49:28.369Z,4.86
2023-02-11T04:51:56.945Z,4.70
2023-02-11T04:54:25.109Z,4.77
2023-02-11T04:56:53.322Z,4.80
2023-02-11T04:59:22.857Z,4.65
2023-02-11T05:01:50.992Z,4.82
2023-02-11T05:04:19.250Z,4.71
2023-02-11T05:06:47.417Z,4.85
2023-02-11T05:09:16.686Z,4.78
2023-02-11T05:11:45.209Z,4.84
2023-02-11T05:14:13.508Z,4.86
2023-02-11T05:16:43.034Z,4.59
2023-02-11T05:19:11.254Z,4.73
2023-02-11T05:21:40.125Z,4.71
2023-02-11T05:24:10.522Z,4.71
2023-02-11T05:26:38.806Z,4.76
2023-02-11T05:29:07.078Z,4.70
2023-02-11T05:31:35.247Z,4.63
2023-02-11T05:34:04.849Z,4.67
2023-02-11T05:36:33.535Z,4.75
2023-02-11T05:39:01.740Z,4.77
2023-02-11T05:41:29.955Z,4.85
2023-02-11T05:43:58.126Z,4.87
2023-02-11T05:46:26.317Z,4.89
2023-02-11T05:48:56.508Z,4.77
2023-02-11T05:51:26.202Z,4.88
2023-02-11T05:53:54.797Z,4.71
2023-02-11T05:56:22.975Z,4.65
2023-02-11T05:58:51.212Z,4.61
2023-02-11T06:01:19.760Z,4.75
2023-02-11T06:03:49.980Z,4.77
2023-02-11T06:06:18.436Z,4.62
2023-02-11T06:08:47.947Z,4.73
2023-02-11T06:11:17.069Z,4.75
2023-02-11T06:13:45.245Z,4.73
2023-02-11T06:16:13.448Z,4.74
2023-02-11T06:18:41.674Z,4.69
2023-02-11T06:21:11.734Z,4.69
2023-02-11T06:23:40.186Z,4.70
2023-02-11T06:26:17.410Z,4.79
2023-02-11T06:28:45.694Z,4.78
2023-02-11T06:31:15.042Z,4.76
2023-02-11T06:33:43.515Z,4.76
2023-02-11T06:36:15.940Z,4.88
2023-02-11T06:38:44.753Z,4.80
2023-02-11T06:41:16.375Z,4.80
2023-02-11T06:43:45.035Z,4.87
2023-02-11T06:46:13.827Z,4.92
2023-02-11T06:48:44.727Z,4.96
2023-02-11T06:51:15.942Z,4.89
2023-02-11T06:53:46.573Z,4.91
2023-02-11T06:56:20.273Z,4.88
2023-02-11T06:58:48.721Z,4.91
2023-02-11T07:01:17.799Z,4.95
2023-02-11T07:03:47.131Z,4.94
2023-02-11T07:06:19.111Z,4.80
2023-02-11T07:08:48.376Z,4.80
2023-02-11T07:11:21.003Z,4.82
2023-02-11T07:13:49.376Z,4.74
2023-02-11T07:16:20.237Z,4.90
2023-02-11T07:18:50.497Z,4.76
2023-02-11T07:21:22.730Z,4.77
2023-02-11T07:23:51.489Z,4.84
2023-02-11T07:26:25.650Z,4.74
2023-02-11T07:28:54.545Z,4.73
2023-02-11T07:31:25.543Z,4.78
2023-02-11T07:33:55.658Z,4.85
2023-02-11T07:36:24.438Z,4.68
2023-02-11T07:38:52.629Z,4.78
2023-02-11T07:41:24.419Z,4.73
2023-02-11T07:43:52.891Z,4.79
2023-02-11T07:46:23.626Z,4.82
2023-02-11T07:48:52.125Z,4.91
2023-02-11T07:51:22.840Z,4.81
2023-02-11T07:53:52.066Z,4.85
2023-02-11T07:56:23.491Z,4.79
2023-02-11T07:58:52.381Z,4.83
2023-02-11T08:01:25.289Z,4.93
2023-02-11T08:03:54.367Z,5.05
2023-02-11T08:06:24.969Z,5.05
2023-02-11T08:08:53.983Z,5.02
2023-02-11T08:11:25.988Z,5.14
2023-02-11T08:13:56.318Z,5.17
2023-02-11T08:16:27.089Z,5.13
2023-02-11T08:18:59.001Z,5.15
2023-02-11T08:21:27.841Z,5.02
2023-02-11T08:23:56.721Z,4.90
2023-02-11T08:26:29.750Z,5.00
2023-02-11T08:28:59.706Z,5.08
2023-02-11T08:31:31.233Z,4.98
2023-02-11T08:33:59.723Z,5.02
2023-02-11T08:36:31.743Z,5.07
2023-02-11T08:39:17.500Z,5.04
2023-02-11T08:41:49.410Z,4.99
2023-02-11T08:44:18.258Z,5.02
2023-02-11T08:46:46.840Z,4.97
2023-02-11T08:49:15.644Z,5.10
2023-02-11T08:51:44.573Z,5.21
2023-02-11T08:54:13.589Z,5.28
2023-02-11T08:56:41.865Z,5.07
2023-02-11T08:59:17.694Z,5.21
2023-02-11T09:01:47.070Z,5.14
2023-02-11T09:04:15.836Z,5.31
2023-02-11T09:06:44.292Z,5.19
2023-02-11T09:09:14.616Z,5.22
2023-02-11T09:11:45.498Z,5.14
2023-02-11T09:14:20.600Z,5.27
2023-02-11T09:16:49.748Z,5.35
2023-02-11T09:19:18.551Z,5.34
2023-02-11T09:21:47.508Z,5.38
2023-02-11T09:24:16.078Z,5.59
2023-02-11T09:26:44.740Z,5.53
2023-02-11T09:29:13.320Z,5.70
2023-02-11T09:31:42.999Z,5.81
2023-02-11T09:34:12.717Z,5.51
2023-02-11T09:36:42.055Z,5.73
2023-02-11T09:39:14.720Z,5.65
2023-02-11T09:42:06.016Z,5.74
2023-02-11T09:44:38.207Z,5.71
2023-02-11T09:47:20.618Z,5.68
2023-02-11T09:49:53.800Z,5.59
2023-02-11T09:52:35.021Z,5.59
2023-02-11T09:55:05.838Z,5.72
2023-02-11T09:57:36.749Z,5.63
2023-02-11T10:00:23.411Z,5.67
2023-02-11T10:03:33.437Z,5.57
2023-02-11T10:06:27.692Z,5.54
2023-02-11T10:09:08.463Z,5.47
2023-02-11T10:11:50.500Z,5.66
2023-02-11T10:14:44.789Z,5.48
2023-02-11T10:17:27.269Z,5.69
2023-02-11T10:20:15.841Z,5.92
2023-02-11T10:22:50.302Z,5.93
2023-02-11T10:25:26.793Z,5.95
2023-02-11T10:28:00.643Z,5.76
2023-02-11T10:30:33.406Z,5.76
2023-02-11T10:33:12.535Z,5.78
2023-02-11T10:35:43.741Z,5.55
2023-02-11T10:38:12.661Z,5.70
2023-02-11T10:40:40.949Z,5.66
2023-02-11T10:43:14.423Z,5.87
2023-02-11T10:45:48.362Z,5.88
2023-02-11T10:48:44.845Z,6.07
2023-02-11T10:51:22.166Z,6.20
2023-02-11T10:53:59.966Z,5.92
2023-02-11T10:56:29.386Z,5.86
2023-02-11T10:59:01.678Z,5.90
2023-02-11T11:01:42.935Z,5.85
2023-02-11T11:04:36.414Z,6.05
2023-02-11T11:07:20.115Z,5.95
2023-02-11T11:09:53.588Z,5.98
2023-02-11T11:12:36.371Z,6.20
2023-02-11T11:15:23.012Z,5.93
2023-02-11T11:17:52.263Z,6.06
2023-02-11T11:20:28.317Z,6.10
2023-02-11T11:23:16.890Z,6.31
2023-02-11T11:25:58.187Z,6.12
2023-02-11T11:28:29.668Z,6.17
2023-02-11T11:31:00.562Z,6.05
2023-02-11T11:33:32.053Z,6.23
2023-02-11T11:36:04.969Z,6.17
2023-02-11T11:38:37.870Z,6.18
2023-02-11T11:41:24.297Z,6.24
2023-02-11T11:44:05.292Z,6.34
2023-02-11T11:46:42.102Z,6.19
2023-02-11T11:49:29.086Z,6.13
2023-02-11T11:52:09.001Z,6.10
2023-02-11T11:54:39.490Z,6.20
2023-02-11T11:57:16.465Z,6.39
2023-02-11T11:59:45.173Z,6.42
2023-02-11T12:02:51.932Z,6.41
2023-02-11T12:05:27.607Z,6.57
2023-02-11T12:08:07.073Z,6.44
2023-02-11T12:10:59.363Z,6.63
2023-02-11T12:13:43.975Z,6.49
2023-02-11T12:16:29.866Z,6.55
2023-02-11T12:19:27.796Z,6.47
2023-02-11T12:22:08.940Z,6.66
2023-02-11T12:25:06.487Z,6.50
2023-02-11T12:27:49.360Z,6.67
2023-02-11T12:30:38.003Z,6.56
2023-02-11T12:33:16.776Z,6.59
2023-02-11T12:35:57.319Z,6.65
2023-02-11T12:39:00.370Z,6.89
2023-02-11T12:42:21.844Z,6.75
2023-02-11T12:45:09.940Z,6.89
2023-02-11T12:47:51.007Z,6.87
2023-02-11T12:50:29.765Z,6.75
2023-02-11T12:53:27.234Z,6.71
2023-02-11T12:56:01.596Z,6.97
2023-02-11T12:58:44.566Z,6.91
2023-02-11T13:01:22.586Z,7.06
2023-02-11T13:03:57.053Z,6.67
2023-02-11T13:06:34.651Z,7.05
2023-02-11T13:09:06.972Z,6.90
2023-02-11T13:11:41.314Z,6.71
2023-02-11T13:14:17.372Z,6.48
2023-02-11T13:16:49.973Z,6.98
2023-02-11T13:19:23.505Z,6.70
2023-02-11T13:22:14.252Z,6.55
2023-02-11T13:24:45.644Z,6.57
2023-02-11T13:27:33.565Z,6.74
2023-02-11T13:30:28.512Z,6.88
2023-02-11T13:33:33.721Z,6.84
2023-02-11T13:36:24.126Z,6.70
2023-02-11T13:39:07.870Z,6.99
2023-02-11T13:41:40.826Z,6.79
2023-02-11T13:44:27.531Z,6.66
2023-02-11T13:47:01.227Z,6.65
2023-02-11T13:49:36.966Z,6.56
2023-02-11T13:52:17.479Z,6.53
2023-02-11T13:54:51.790Z,6.65
2023-02-11T13:57:41.208Z,6.56
2023-02-11T14:00:49.889Z,6.70
2023-02-11T14:03:58.138Z,6.78
2023-02-11T14:06:47.211Z,6.83
2023-02-11T14:09:41.512Z,6.90
2023-02-11T14:12:35.772Z,6.89
2023-02-11T14:15:40.990Z,6.89
2023-02-11T14:18:38.395Z,6.67
2023-02-11T14:21:14.262Z,6.82
2023-02-11T14:23:43.907Z,6.62
2023-02-11T14:26:40.813Z,6.59
2023-02-11T14:29:18.538Z,6.70
2023-02-11T14:31:56.817Z,6.81
2023-02-11T14:34:51.421Z,7.06
2023-02-11T14:37:34.773Z,6.64
2023-02-11T14:40:19.374Z,6.92
2023-02-11T14:42:47.499Z,6.87
2023-02-11T14:45:24.811Z,6.93
2023-02-11T14:47:59.391Z,6.71
2023-02-11T14:50:34.034Z,6.98
2023-02-11T14:53:03.402Z,6.81
2023-02-11T14:55:37.969Z,6.93
2023-02-11T14:58:15.188Z,6.96
2023-02-11T15:00:58.604Z,7.21
2023-02-11T15:03:35.983Z,7.03
2023-02-11T15:06:08.704Z,6.96
2023-02-11T15:08:39.158Z,7.03
2023-02-11T15:11:16.566Z,6.96
2023-02-11T15:13:47.547Z,7.01
2023-02-11T15:16:20.670Z,7.10
2023-02-11T15:18:52.684Z,7.14
2023-02-11T15:21:27.445Z,6.97
2023-02-11T15:24:02.097Z,6.92
2023-02-11T15:26:32.168Z,6.97
2023-02-11T15:29:01.402Z,7.10
2023-02-11T15:31:32.558Z,6.87
2023-02-11T15:34:09.458Z,6.94
2023-02-11T15:36:38.791Z,7.06
2023-02-11T15:39:34.254Z,7.14
2023-02-11T15:42:22.516Z,7.20
2023-02-11T15:45:09.551Z,7.21
2023-02-11T15:47:38.577Z,7.12
2023-02-11T15:50:08.639Z,7.21
2023-02-11T15:52:36.968Z,7.12
2023-02-11T15:55:05.716Z,7.27
2023-02-11T15:57:36.749Z,7.17
2023-02-11T16:00:07.386Z,7.25
2023-02-11T16:02:44.974Z,7.15
2023-02-11T16:05:32.119Z,7.16
2023-02-11T16:08:01.235Z,7.15
2023-02-11T16:10:33.360Z,7.15
2023-02-11T16:13:20.718Z,7.03
2023-02-11T16:15:52.413Z,7.08
2023-02-11T16:18:39.586Z,7.23
2023-02-11T16:21:16.678Z,7.24
2023-02-11T16:23:52.053Z,7.39
2023-02-11T16:26:28.763Z,7.40
2023-02-11T16:29:12.749Z,7.40
2023-02-11T16:31:43.959Z,7.30
2023-02-11T16:34:19.233Z,7.47
2023-02-11T16:36:48.421Z,7.47
2023-02-11T16:39:18.433Z,7.28
2023-02-11T16:41:47.342Z,7.18
2023-02-11T16:44:17.516Z,7.12
2023-02-11T16:46:47.006Z,7.07
2023-02-11T16:49:22.412Z,7.29
2023-02-11T16:51:53.206Z,7.41
2023-02-11T16:54:21.860Z,7.28
2023-02-11T16:56:50.407Z,7.17
2023-02-11T16:59:20.019Z,7.33
2023-02-11T17:01:50.674Z,7.31
2023-02-11T17:04:24.780Z,7.31
2023-02-11T17:06:53.376Z,7.35
2023-02-11T17:09:28.405Z,7.37
2023-02-11T17:11:58.493Z,7.37
2023-02-11T17:14:28.126Z,7.37
2023-02-11T17:16:56.563Z,7.32
2023-02-11T17:19:24.961Z,7.39
2023-02-11T17:21:54.168Z,7.12
2023-02-11T17:24:23.295Z,7.23
2023-02-11T17:26:52.011Z,7.17
2023-02-11T17:29:23.845Z,7.14
2023-02-11T17:31:54.130Z,7.25
2023-02-11T17:34:23.680Z,7.21
2023-02-11T17:36:52.017Z,7.30
2023-02-11T17:39:20.997Z,7.12
2023-02-11T17:41:49.301Z,7.29
2023-02-11T17:44:17.471Z,7.44
2023-02-11T17:46:45.732Z,7.38
2023-02-11T17:49:15.675Z,7.38
2023-02-11T17:51:44.136Z,7.55
2023-02-11T17:54:19.682Z,7.55
2023-02-11T17:56:50.611Z,7.57
2023-02-11T17:59:19.336Z,7.56
2023-02-11T18:01:47.909Z,7.38
2023-02-11T18:04:20.028Z,7.64
2023-02-11T18:06:50.203Z,7.72
2023-02-11T18:09:18.578Z,7.47
2023-02-11T18:11:48.409Z,7.42
2023-02-11T18:14:16.580Z,7.23
2023-02-11T18:16:45.803Z,7.27
2023-02-11T18:19:14.704Z,7.39
2023-02-11T18:21:44.276Z,7.47
2023-02-11T18:24:12.549Z,7.50
2023-02-11T18:26:41.577Z,7.70
2023-02-11T18:29:10.055Z,7.82
2023-02-11T18:31:39.301Z,7.48
2023-02-11T18:34:10.608Z,7.34
2023-02-11T18:36:38.780Z,7.53
2023-02-11T18:39:08.506Z,7.69
2023-02-11T18:41:36.709Z,7.62
2023-02-11T18:44:05.290Z,7.38
2023-02-11T18:46:33.506Z,7.31
2023-02-11T18:49:01.814Z,7.54
2023-02-11T18:51:32.277Z,7.61
2023-02-11T18:54:01.114Z,7.38
2023-02-11T18:56:30.713Z,7.50
2023-02-11T18:59:01.087Z,7.42
2023-02-11T19:01:31.483Z,7.26
2023-02-11T19:04:02.792Z,7.37
2023-02-11T19:06:34.283Z,7.42
2023-02-11T19:09:09.885Z,7.56
2023-02-11T19:11:54.444Z,7.74
2023-02-11T19:14:25.461Z,7.82
2023-02-11T19:16:58.000Z,7.77
2023-02-11T19:19:29.353Z,7.63
2023-02-11T19:21:59.216Z,7.55
2023-02-11T19:24:28.991Z,7.69
2023-02-11T19:27:06.874Z,7.75
2023-02-11T19:29:35.365Z,7.76
2023-02-11T19:32:07.243Z,7.76
2023-02-11T19:34:40.943Z,7.47
2023-02-11T19:37:10.751Z,7.66
2023-02-11T19:39:39.161Z,7.81
2023-02-11T19:42:08.799Z,7.16
2023-02-11T19:44:37.023Z,7.45
2023-02-11T19:47:06.775Z,7.52
2023-02-11T19:49:35.047Z,7.50
2023-02-11T19:52:03.277Z,7.37
2023-02-11T19:54:31.455Z,7.40
2023-02-11T19:56:59.650Z,7.64
2023-02-11T19:59:29.281Z,7.66
2023-02-11T20:01:58.211Z,7.66
2023-02-11T20:04:26.486Z,7.79
2023-02-11T20:06:54.687Z,7.32
2023-02-11T20:09:23.190Z,7.41
2023-02-11T20:11:51.369Z,7.18
2023-02-11T20:14:19.652Z,7.25
2023-02-11T20:16:50.260Z,7.37
2023-02-11T20:19:22.118Z,7.42
2023-02-11T20:21:55.519Z,7.44
2023-02-11T20:24:25.582Z,7.38
2023-02-11T20:26:56.777Z,7.15
2023-02-11T20:29:25.977Z,7.33
2023-02-11T20:31:55.914Z,7.37
2023-02-11T20:34:24.972Z,7.29
2023-02-11T20:36:55.018Z,7.19
2023-02-11T20:39:25.375Z,7.34
2023-02-11T20:41:54.419Z,7.14
2023-02-11T20:44:23.582Z,7.25
2023-02-11T20:46:54.017Z,7.25
2023-02-11T20:49:25.391Z,7.23
2023-02-11T20:51:54.398Z,7.34
2023-02-11T20:54:26.887Z,7.23
2023-02-11T20:56:56.794Z,7.36
2023-02-11T20:59:25.285Z,7.19
2023-02-11T21:01:56.988Z,7.32
2023-02-11T21:04:30.429Z,7.21
2023-02-11T21:07:01.186Z,7.37
2023-02-11T21:09:33.093Z,7.34
2023-02-11T21:12:02.366Z,7.55
2023-02-11T21:14:31.586Z,7.25
2023-02-11T21:17:01.889Z,7.30
2023-02-11T21:19:31.588Z,7.30
2023-02-11T21:22:00.902Z,7.37
2023-02-11T21:24:30.740Z,7.59
2023-02-11T21:26:59.284Z,7.55
2023-02-11T21:29:27.625Z,7.18
2023-02-11T21:31:56.180Z,7.17
2023-02-11T21:34:25.189Z,7.20
2023-02-11T21:36:54.692Z,7.18
2023-02-11T21:39:23.120Z,7.44
2023-02-11T21:41:52.731Z,7.37
2023-02-11T21:44:21.015Z,7.11
2023-02-11T21:46:51.406Z,6.93
2023-02-11T21:49:21.218Z,7.10
2023-02-11T21:51:51.596Z,6.92
2023-02-11T21:54:22.787Z,6.87
2023-02-11T21:56:53.081Z,7.13
2023-02-11T21:59:21.382Z,7.25
2023-02-11T22:01:50.199Z,7.25
2023-02-11T22:04:19.699Z,7.16
2023-02-11T22:06:51.269Z,7.27
2023-02-11T22:09:22.371Z,7.32
2023-02-11T22:11:50.676Z,7.42
2023-02-11T22:14:19.068Z,7.48
2023-02-11T22:16:47.885Z,7.50
2023-02-11T22:19:16.368Z,7.47
2023-02-11T22:21:44.570Z,7.36
2023-02-11T22:24:12.926Z,7.30
2023-02-11T22:26:42.508Z,7.35
2023-02-11T22:29:10.737Z,7.37
2023-02-11T22:31:39.116Z,7.57
2023-02-11T22:34:07.885Z,7.39
2023-02-11T22:36:38.885Z,7.45
2023-02-11T22:39:09.711Z,7.47
2023-02-11T22:41:39.261Z,7.30
2023-02-11T22:44:09.258Z,7.26
2023-02-11T22:46:37.823Z,7.23
2023-02-11T22:49:07.072Z,7.07
2023-02-11T22:51:35.451Z,7.10
2023-02-11T22:54:07.006Z,7.05
2023-02-11T22:56:36.157Z,7.11
2023-02-11T22:59:07.715Z,7.10
2023-02-11T23:01:37.413Z,7.14
2023-02-11T23:04:09.231Z,7.15
2023-02-11T23:06:37.466Z,6.98
2023-02-11T23:09:06.110Z,7.01
2023-02-11T23:11:35.137Z,7.20
2023-02-11T23:14:04.199Z,7.28
2023-02-11T23:16:36.286Z,7.24
2023-02-11T23:19:07.725Z,7.14
2023-02-11T23:21:38.994Z,7.21
2023-02-11T23:24:11.572Z,7.33
2023-02-11T23:26:41.077Z,7.45
2023-02-11T23:29:09.973Z,7.51
2023-02-11T23:31:43.260Z,7.30
2023-02-11T23:34:12.008Z,7.17
2023-02-11T23:36:40.214Z,7.06
2023-02-11T23:39:08.410Z,7.14
2023-02-11T23:41:36.611Z,7.25
2023-02-11T23:44:04.989Z,7.34
2023-02-11T23:46:33.288Z,7.44
2023-02-11T23:49:02.992Z,7.41
2023-02-11T23:51:31.656Z,7.54
2023-02-11T23:53:59.805Z,7.54
2023-02-11T23:56:29.226Z,7.59
2023-02-11T23:58:59.071Z,7.49
